Chesterfield, United Kingdom
Current Conditions -  °F | °C
As of 7:50 PM on Saturday 20 Dec 2014 (Local Time) from EGCN Reporting Station
Broken Clouds Broken Clouds  
Wind Chill: 43°   Ceiling: 3000
Heat Index: 46°   Visibility: 6mi
Dew Point: 41°   Wind: 7mph
Humidity: 81%   Direction: 250°WSW
Pressure: 30.36"   Gusts: NA
Location:  53.26°N, 1.39°W
Report Text: EGCN 201950Z 25006KT 9999 BKN030 08/05 Q1028
Loading
Personal Weather Stations






























Interactive Weather Map New forecast layout! Learn more

10-Day Weather Forecast

Advertisements
Track Severe Weather on mobile